Airport Information

KMMV - Mc Minnville Muni Airport

KMMV 160753Z AUTO 34009KT 10SM SCT090 03/M02 A2975 RMK AO2 SLP075 T00281022 400670011


  • General Information

  • Coordinates: N 45°11'39"/ W 123°8'9"
  • Location: N/A
  • Surveyed Elevation: 163 MSL

Operations

Flow Name Active Runways Conditions

Green background denotes normal operations.


Common Frequencies

Callsign Frequency Position Name

More at the Document Center


Charts